createdAt,value
2022-11-07T00:00:19.960Z,8.25
2022-11-07T00:02:46.234Z,8.48
2022-11-07T00:05:12.455Z,8.52
2022-11-07T00:07:38.654Z,8.50
2022-11-07T00:10:04.836Z,8.53
2022-11-07T00:12:31.257Z,8.59
2022-11-07T00:14:57.460Z,8.56
2022-11-07T00:17:23.638Z,8.51
2022-11-07T00:19:49.835Z,8.46
2022-11-07T00:22:16.062Z,8.40
2022-11-07T00:24:42.598Z,8.55
2022-11-07T00:27:08.822Z,8.47
2022-11-07T00:29:35.268Z,8.50
2022-11-07T00:32:01.446Z,8.61
2022-11-07T00:34:27.804Z,8.54
2022-11-07T00:36:54.047Z,8.62
2022-11-07T00:39:20.225Z,8.84
2022-11-07T00:41:46.423Z,8.82
2022-11-07T00:44:12.684Z,8.80
2022-11-07T00:46:42.139Z,8.60
2022-11-07T00:49:08.323Z,8.68
2022-11-07T00:51:34.570Z,8.70
2022-11-07T00:54:00.829Z,8.64
2022-11-07T00:56:27.138Z,8.76
2022-11-07T00:58:53.401Z,8.71
2022-11-07T01:01:22.948Z,8.68
2022-11-07T01:04:07.819Z,8.71
2022-11-07T01:06:34.258Z,8.76
2022-11-07T01:09:00.600Z,8.70
2022-11-07T01:11:26.832Z,8.79
2022-11-07T01:13:53.032Z,8.72
2022-11-07T01:16:19.304Z,8.80
2022-11-07T01:18:45.569Z,8.64
2022-11-07T01:21:16.253Z,8.70
2022-11-07T01:23:42.813Z,8.60
2022-11-07T01:28:58.889Z,8.63
2022-11-07T01:31:25.076Z,8.53
2022-11-07T01:33:51.355Z,8.66
2022-11-07T01:36:17.545Z,8.55
2022-11-07T01:38:43.767Z,8.52
2022-11-07T01:41:22.239Z,8.65
2022-11-07T01:43:48.773Z,8.59
2022-11-07T01:46:15.024Z,8.54
2022-11-07T01:48:41.221Z,8.55
2022-11-07T01:51:07.586Z,8.42
2022-11-07T01:53:34.758Z,8.52
2022-11-07T01:56:00.989Z,8.51
2022-11-07T01:58:27.223Z,8.48
2022-11-07T02:00:53.443Z,8.41
2022-11-07T02:03:19.620Z,8.35
2022-11-07T02:05:45.876Z,8.53
2022-11-07T02:08:12.133Z,8.53
2022-11-07T02:10:38.376Z,8.39
2022-11-07T02:13:04.579Z,8.33
2022-11-07T02:15:30.776Z,8.33
2022-11-07T02:17:56.979Z,8.24
2022-11-07T02:20:23.171Z,8.15
2022-11-07T02:22:49.383Z,8.12
2022-11-07T02:25:15.565Z,8.21
2022-11-07T02:27:41.809Z,8.14
2022-11-07T02:30:07.994Z,8.17
2022-11-07T02:32:34.221Z,8.17
2022-11-07T02:35:00.411Z,8.13
2022-11-07T02:37:26.622Z,7.99
2022-11-07T02:39:52.879Z,8.03
2022-11-07T02:42:19.063Z,8.02
2022-11-07T02:44:45.255Z,7.93
2022-11-07T02:47:11.432Z,8.03
2022-11-07T02:49:37.714Z,7.99
2022-11-07T02:52:03.898Z,8.00
2022-11-07T02:54:30.079Z,7.87
2022-11-07T02:56:56.261Z,7.91
2022-11-07T02:59:26.830Z,7.91
2022-11-07T03:01:53.659Z,7.84
2022-11-07T03:04:20.082Z,7.79
2022-11-07T03:06:46.420Z,7.86
2022-11-07T03:09:12.593Z,7.71
2022-11-07T03:11:39.381Z,7.82
2022-11-07T03:14:05.579Z,7.84
2022-11-07T03:16:32.038Z,7.78
2022-11-07T03:18:58.280Z,7.70
2022-11-07T03:21:24.460Z,7.83
2022-11-07T03:23:50.649Z,7.72
2022-11-07T03:26:19.251Z,7.63
2022-11-07T03:28:45.438Z,6.97
2022-11-07T03:31:11.705Z,7.30
2022-11-07T03:33:37.902Z,7.48
2022-11-07T03:36:04.118Z,7.61
2022-11-07T03:38:30.304Z,7.67
2022-11-07T03:40:56.498Z,7.65
2022-11-07T03:43:22.685Z,7.50
2022-11-07T03:45:48.875Z,7.61
2022-11-07T03:48:15.080Z,7.60
2022-11-07T03:50:41.291Z,7.55
2022-11-07T03:53:07.486Z,7.55
2022-11-07T03:55:33.698Z,7.71
2022-11-07T03:57:59.878Z,7.42
2022-11-07T04:00:26.115Z,7.53
2022-11-07T04:02:52.460Z,7.77
2022-11-07T04:05:18.754Z,7.28
2022-11-07T04:07:44.982Z,7.20
2022-11-07T04:10:11.193Z,7.58
2022-11-07T04:12:56.069Z,7.35
2022-11-07T04:15:40.779Z,7.55
2022-11-07T04:18:06.963Z,7.69
2022-11-07T04:20:33.183Z,7.49
2022-11-07T04:22:59.361Z,7.70
2022-11-07T04:25:48.867Z,7.38
2022-11-07T04:28:17.684Z,7.69
2022-11-07T04:30:43.910Z,7.91
2022-11-07T04:33:10.102Z,7.84
2022-11-07T04:35:36.335Z,7.80
2022-11-07T04:38:02.547Z,7.91
2022-11-07T04:40:28.765Z,8.04
2022-11-07T04:42:54.951Z,8.05
2022-11-07T04:45:21.126Z,8.06
2022-11-07T04:47:47.324Z,8.11
2022-11-07T04:50:13.524Z,7.90
2022-11-07T04:52:39.725Z,8.15
2022-11-07T04:55:05.949Z,8.17
2022-11-07T04:57:32.132Z,8.23
2022-11-07T05:00:02.051Z,8.22
2022-11-07T05:02:28.384Z,8.16
2022-11-07T05:04:54.699Z,8.19
2022-11-07T05:07:20.897Z,8.19
2022-11-07T05:09:47.092Z,8.20
2022-11-07T05:12:13.331Z,8.22
2022-11-07T05:14:39.521Z,8.30
2022-11-07T05:17:09.086Z,8.39
2022-11-07T05:19:35.273Z,8.14
2022-11-07T05:22:20.586Z,8.21
2022-11-07T05:24:46.768Z,8.29
2022-11-07T05:27:13.258Z,8.20
2022-11-07T05:29:39.440Z,8.13
2022-11-07T05:32:05.629Z,8.16
2022-11-07T05:34:31.867Z,8.23
2022-11-07T05:36:58.061Z,8.21
2022-11-07T05:42:14.973Z,8.04
2022-11-07T05:44:45.178Z,7.97
2022-11-07T05:47:11.421Z,7.95
2022-11-07T05:49:37.632Z,8.13
2022-11-07T05:52:03.810Z,8.09
2022-11-07T05:54:30.368Z,8.01
2022-11-07T05:56:57.382Z,7.94
2022-11-07T05:59:23.821Z,7.94
2022-11-07T06:01:51.271Z,7.83
2022-11-07T06:04:21.078Z,7.81
2022-11-07T06:06:47.270Z,7.72
2022-11-07T06:12:03.979Z,7.71
2022-11-07T06:14:30.369Z,7.65
2022-11-07T06:16:56.567Z,7.56
2022-11-07T06:19:22.749Z,7.60
2022-11-07T06:21:48.942Z,7.61
2022-11-07T06:24:15.654Z,7.56
2022-11-07T06:26:43.312Z,7.83
2022-11-07T06:29:09.582Z,7.84
2022-11-07T06:31:36.187Z,7.74
2022-11-07T06:34:02.418Z,7.69
2022-11-07T06:36:28.607Z,7.53
2022-11-07T06:38:54.847Z,7.59
2022-11-07T06:41:21.050Z,7.54
2022-11-07T06:43:47.298Z,7.68
2022-11-07T06:46:13.484Z,7.73
2022-11-07T06:48:39.688Z,7.67
2022-11-07T06:51:05.933Z,7.78
2022-11-07T06:53:32.325Z,7.74
2022-11-07T06:55:58.511Z,7.89
2022-11-07T06:58:24.688Z,7.93
2022-11-07T07:00:51.012Z,7.88
2022-11-07T07:03:17.524Z,8.20
2022-11-07T07:05:44.052Z,8.15
2022-11-07T07:08:10.315Z,8.20
2022-11-07T07:10:36.510Z,8.08
2022-11-07T07:13:02.692Z,8.48
2022-11-07T07:15:28.884Z,8.56
2022-11-07T07:17:55.388Z,8.71
2022-11-07T07:20:21.567Z,8.70
2022-11-07T07:22:51.670Z,8.87
2022-11-07T07:25:19.528Z,8.90
2022-11-07T07:27:45.804Z,8.95
2022-11-07T07:30:12.267Z,9.00
2022-11-07T07:32:38.566Z,9.26
2022-11-07T07:35:04.821Z,9.35
2022-11-07T07:37:31.117Z,9.39
2022-11-07T07:39:57.370Z,9.56
2022-11-07T07:42:23.646Z,9.25
2022-11-07T07:44:49.903Z,9.34
2022-11-07T07:47:16.186Z,9.33
2022-11-07T07:49:42.725Z,9.48
2022-11-07T07:52:09.014Z,9.48
2022-11-07T07:54:35.274Z,9.55
2022-11-07T07:57:01.813Z,9.70
2022-11-07T07:59:28.074Z,9.67
2022-11-07T08:01:57.246Z,10.06
2022-11-07T08:04:23.821Z,10.22
2022-11-07T08:06:50.102Z,10.16
2022-11-07T08:09:16.363Z,10.58
2022-11-07T08:11:42.631Z,10.34
2022-11-07T08:14:08.899Z,10.15
2022-11-07T08:16:35.168Z,10.13
2022-11-07T08:19:01.423Z,10.46
2022-11-07T08:21:27.769Z,10.47
2022-11-07T08:23:54.776Z,10.30
2022-11-07T08:26:21.101Z,10.64
2022-11-07T08:28:47.358Z,10.66
2022-11-07T08:31:13.720Z,10.80
2022-11-07T08:33:40.092Z,10.89
2022-11-07T08:36:06.440Z,10.89
2022-11-07T08:38:32.773Z,10.32
2022-11-07T08:40:59.082Z,10.43
2022-11-07T08:43:25.366Z,10.86
2022-11-07T08:45:51.924Z,11.23
2022-11-07T08:48:18.196Z,11.07
2022-11-07T08:50:44.478Z,11.00
2022-11-07T08:53:10.735Z,11.00
2022-11-07T08:55:38.940Z,11.51
2022-11-07T08:58:05.243Z,11.69
2022-11-07T09:00:35.022Z,11.76
2022-11-07T09:03:38.900Z,11.53
2022-11-07T09:05:47.641Z,12.27
2022-11-07T09:08:13.902Z,12.28
2022-11-07T09:10:40.325Z,11.96
2022-11-07T09:13:06.573Z,12.21
2022-11-07T09:15:33.155Z,12.41
2022-11-07T09:17:59.647Z,12.03
2022-11-07T09:20:25.919Z,12.36
2022-11-07T09:22:52.371Z,12.48
2022-11-07T09:25:19.234Z,12.33
2022-11-07T09:27:47.190Z,12.67
2022-11-07T09:30:13.436Z,13.41
2022-11-07T09:32:45.105Z,13.41
2022-11-07T09:35:12.044Z,13.33
2022-11-07T09:37:38.805Z,13.72
2022-11-07T09:40:05.067Z,13.77
2022-11-07T09:42:31.339Z,13.57
2022-11-07T09:44:57.605Z,13.83
2022-11-07T09:47:23.860Z,13.61
2022-11-07T09:49:50.449Z,14.08
2022-11-07T09:52:16.740Z,13.82
2022-11-07T09:54:46.707Z,14.51
2022-11-07T09:57:14.373Z,14.65
2022-11-07T09:59:40.731Z,14.47
2022-11-07T10:02:07.015Z,15.03
2022-11-07T10:04:33.379Z,15.19
2022-11-07T10:06:59.694Z,14.75
2022-11-07T10:09:25.970Z,14.87
2022-11-07T10:11:52.232Z,15.52
2022-11-07T10:14:18.902Z,15.30
2022-11-07T10:16:47.921Z,15.19
2022-11-07T10:19:14.191Z,15.14
2022-11-07T10:21:40.469Z,15.44
2022-11-07T10:24:06.737Z,15.17
2022-11-07T10:26:33.050Z,15.05
2022-11-07T10:28:59.305Z,15.17
2022-11-07T10:31:25.602Z,15.08
2022-11-07T10:33:51.914Z,15.36
2022-11-07T10:36:18.210Z,15.16
2022-11-07T10:38:44.465Z,15.10
2022-11-07T10:41:10.716Z,15.35
2022-11-07T10:43:36.971Z,15.37
2022-11-07T10:46:03.250Z,15.12
2022-11-07T10:48:29.544Z,15.28
2022-11-07T10:50:55.953Z,15.44
2022-11-07T10:53:22.252Z,15.56
2022-11-07T10:55:48.528Z,15.15
2022-11-07T10:58:15.031Z,15.57
2022-11-07T11:00:41.502Z,15.32
2022-11-07T11:03:07.764Z,15.34
2022-11-07T11:05:34.048Z,14.98
2022-11-07T11:08:00.310Z,15.01
2022-11-07T11:10:27.271Z,15.04
2022-11-07T11:12:53.537Z,15.12
2022-11-07T11:15:19.793Z,15.02
2022-11-07T11:17:46.038Z,15.02
2022-11-07T11:20:12.314Z,15.51
2022-11-07T11:22:38.588Z,15.71
2022-11-07T11:25:05.192Z,15.83
2022-11-07T11:27:31.454Z,16.18
2022-11-07T11:29:57.738Z,15.72
2022-11-07T11:32:24.282Z,16.13
2022-11-07T11:34:50.717Z,16.14
2022-11-07T11:37:16.967Z,16.14
2022-11-07T11:39:43.251Z,16.32
2022-11-07T11:42:09.535Z,16.50
2022-11-07T11:44:35.855Z,16.01
2022-11-07T11:47:02.155Z,16.39
2022-11-07T11:49:28.407Z,16.67
2022-11-07T11:51:54.805Z,16.70
2022-11-07T11:54:21.059Z,16.39
2022-11-07T11:56:47.512Z,15.81
2022-11-07T11:59:13.767Z,15.53
2022-11-07T12:01:40.342Z,15.88
2022-11-07T12:04:08.126Z,15.80
2022-11-07T12:06:37.888Z,15.56
2022-11-07T12:09:04.143Z,15.51
2022-11-07T12:11:30.401Z,15.61
2022-11-07T12:13:56.658Z,15.60
2022-11-07T12:16:22.924Z,15.72
2022-11-07T12:18:49.174Z,15.85
2022-11-07T12:21:18.923Z,15.34
2022-11-07T12:23:45.185Z,15.24
2022-11-07T12:26:11.431Z,15.20
2022-11-07T12:28:37.696Z,15.01
2022-11-07T12:31:04.006Z,14.92
2022-11-07T12:33:30.271Z,15.24
2022-11-07T12:35:56.534Z,15.43
2022-11-07T12:38:22.792Z,15.29
2022-11-07T12:40:49.061Z,15.17
2022-11-07T12:43:15.598Z,15.36
2022-11-07T12:45:42.027Z,15.85
2022-11-07T12:48:13.095Z,15.29
2022-11-07T12:50:39.798Z,15.36
2022-11-07T12:53:06.074Z,15.70
2022-11-07T12:55:32.348Z,15.23
2022-11-07T12:58:02.046Z,15.41
2022-11-07T13:00:30.312Z,15.21
2022-11-07T13:02:56.889Z,15.27
2022-11-07T13:05:23.157Z,15.00
2022-11-07T13:07:49.440Z,15.27
2022-11-07T13:10:15.918Z,15.51
2022-11-07T13:12:42.178Z,15.42
2022-11-07T13:15:08.426Z,15.33
2022-11-07T13:17:34.668Z,15.30
2022-11-07T13:20:00.944Z,15.22
2022-11-07T13:22:27.213Z,15.37
2022-11-07T13:24:53.489Z,15.40
2022-11-07T13:27:19.780Z,15.20
2022-11-07T13:29:46.034Z,15.23
2022-11-07T13:32:12.324Z,15.12
2022-11-07T13:34:38.579Z,15.00
2022-11-07T13:37:04.895Z,15.51
2022-11-07T13:39:31.156Z,15.37
2022-11-07T13:41:57.430Z,15.29
2022-11-07T13:44:23.785Z,15.39
2022-11-07T13:46:50.118Z,15.20
2022-11-07T13:49:16.413Z,15.20
2022-11-07T13:51:45.027Z,15.27
2022-11-07T13:54:11.277Z,15.39
2022-11-07T13:56:37.529Z,15.47
2022-11-07T13:59:03.839Z,15.47
2022-11-07T14:01:30.186Z,15.72
2022-11-07T14:03:56.575Z,15.52
2022-11-07T14:06:22.958Z,15.55
2022-11-07T14:08:49.204Z,15.38
2022-11-07T14:11:15.486Z,15.53
2022-11-07T14:13:41.951Z,15.59
2022-11-07T14:16:08.225Z,15.74
2022-11-07T14:18:34.489Z,15.51
2022-11-07T14:21:01.587Z,15.42
2022-11-07T14:23:27.788Z,15.40
2022-11-07T14:25:54.315Z,15.39
2022-11-07T14:28:20.769Z,15.37
2022-11-07T14:30:47.120Z,15.00
2022-11-07T14:33:13.366Z,15.40
2022-11-07T14:35:39.661Z,15.39
2022-11-07T14:38:05.931Z,15.11
2022-11-07T14:40:32.182Z,15.11
2022-11-07T14:42:59.651Z,15.06
2022-11-07T14:45:56.627Z,14.86
2022-11-07T14:48:15.042Z,15.16
2022-11-07T14:50:42.546Z,14.94
2022-11-07T14:53:08.804Z,14.90
2022-11-07T14:55:35.063Z,15.03
2022-11-07T14:58:01.459Z,15.13
2022-11-07T15:00:27.771Z,15.06
2022-11-07T15:02:56.061Z,14.73
2022-11-07T15:05:22.457Z,14.75
2022-11-07T15:07:48.720Z,14.96
2022-11-07T15:10:15.884Z,14.80
2022-11-07T15:12:43.591Z,14.88
2022-11-07T15:15:12.622Z,14.87
2022-11-07T15:17:40.267Z,14.94
2022-11-07T15:20:06.882Z,15.01
2022-11-07T15:22:33.152Z,15.11
2022-11-07T15:24:59.458Z,15.01
2022-11-07T15:27:25.712Z,14.92
2022-11-07T15:29:52.285Z,14.99
2022-11-07T15:32:18.532Z,14.81
2022-11-07T15:35:03.632Z,14.59
2022-11-07T15:37:31.084Z,14.81
2022-11-07T15:39:57.540Z,14.74
2022-11-07T15:42:23.824Z,14.86
2022-11-07T15:44:50.121Z,14.75
2022-11-07T15:47:16.382Z,14.66
2022-11-07T15:49:42.631Z,14.64
2022-11-07T15:52:08.917Z,14.73
2022-11-07T15:54:35.190Z,14.65
2022-11-07T15:57:01.617Z,14.68
2022-11-07T15:59:27.894Z,14.71
2022-11-07T16:01:54.373Z,14.65
2022-11-07T16:04:20.731Z,14.64
2022-11-07T16:06:47.603Z,14.64
2022-11-07T16:09:13.847Z,14.57
2022-11-07T16:11:40.111Z,14.56
2022-11-07T16:14:36.417Z,14.49
2022-11-07T16:16:52.952Z,14.57
2022-11-07T16:19:19.254Z,14.53
2022-11-07T16:21:46.601Z,14.56
2022-11-07T16:24:13.012Z,14.58
2022-11-07T16:26:39.455Z,14.54
2022-11-07T16:29:05.985Z,14.51
2022-11-07T16:31:32.516Z,14.22
2022-11-07T16:33:58.807Z,14.34
2022-11-07T16:36:25.285Z,14.44
2022-11-07T16:38:51.674Z,14.45
2022-11-07T16:41:18.107Z,14.52
2022-11-07T16:44:08.484Z,14.27
2022-11-07T16:46:35.712Z,14.31
2022-11-07T16:49:01.985Z,14.24
2022-11-07T16:51:28.334Z,14.27
2022-11-07T16:53:54.648Z,14.26
2022-11-07T16:56:20.948Z,14.20
2022-11-07T16:58:47.267Z,14.22
2022-11-07T17:01:13.621Z,14.36
2022-11-07T17:03:40.017Z,14.29
2022-11-07T17:06:06.269Z,14.17
2022-11-07T17:08:32.809Z,14.10
2022-11-07T17:10:59.071Z,14.15
2022-11-07T17:13:25.409Z,13.96
2022-11-07T17:15:51.698Z,14.05
2022-11-07T17:18:18.348Z,14.01
2022-11-07T17:20:52.492Z,14.12
2022-11-07T17:23:25.277Z,14.16
2022-11-07T17:25:51.749Z,14.08
2022-11-07T17:28:18.333Z,14.02
2022-11-07T17:30:44.827Z,14.05
2022-11-07T17:33:11.073Z,14.00
2022-11-07T17:35:37.516Z,14.03
2022-11-07T17:38:03.835Z,13.94
2022-11-07T17:40:30.129Z,13.82
2022-11-07T17:42:56.613Z,13.67
2022-11-07T17:45:22.933Z,13.64
2022-11-07T17:47:49.820Z,13.67
2022-11-07T17:50:16.254Z,13.87
2022-11-07T17:52:42.502Z,13.88
2022-11-07T17:55:08.754Z,13.90
2022-11-07T17:57:35.006Z,14.03
2022-11-07T18:00:03.361Z,13.90
2022-11-07T18:02:29.683Z,13.66
2022-11-07T18:04:56.307Z,13.49
2022-11-07T18:07:22.559Z,13.67
2022-11-07T18:09:49.965Z,13.66
2022-11-07T18:12:16.225Z,13.75
2022-11-07T18:14:42.492Z,13.61
2022-11-07T18:17:08.751Z,13.59
2022-11-07T18:19:35.034Z,13.60
2022-11-07T18:22:03.091Z,13.17
2022-11-07T18:24:29.337Z,13.31
2022-11-07T18:26:55.594Z,13.07
2022-11-07T18:29:21.866Z,12.89
2022-11-07T18:31:49.695Z,13.09
2022-11-07T18:34:16.023Z,12.95
2022-11-07T18:36:42.304Z,12.83
2022-11-07T18:39:08.557Z,12.81
2022-11-07T18:41:34.816Z,12.90
2022-11-07T18:44:04.706Z,12.88
2022-11-07T18:46:31.405Z,13.00
2022-11-07T18:48:57.667Z,12.54
2022-11-07T18:51:23.972Z,12.73
2022-11-07T18:53:50.227Z,12.82
2022-11-07T18:56:16.475Z,12.68
2022-11-07T18:58:43.181Z,12.79
2022-11-07T19:01:10.566Z,12.83
2022-11-07T19:03:36.838Z,12.69
2022-11-07T19:06:03.100Z,12.32
2022-11-07T19:08:32.399Z,12.57
2022-11-07T19:10:58.784Z,12.33
2022-11-07T19:13:25.081Z,12.40
2022-11-07T19:15:51.403Z,12.35
2022-11-07T19:18:17.991Z,12.42
2022-11-07T19:20:44.485Z,12.30
2022-11-07T19:23:11.600Z,12.32
2022-11-07T19:25:37.782Z,12.32
2022-11-07T19:28:04.044Z,12.13
2022-11-07T19:30:31.626Z,12.21
2022-11-07T19:32:57.878Z,12.21
2022-11-07T19:35:24.179Z,12.05
2022-11-07T19:37:50.436Z,11.76
2022-11-07T19:40:16.697Z,11.92
2022-11-07T19:42:42.949Z,11.87
2022-11-07T19:45:09.225Z,11.54
2022-11-07T19:47:35.543Z,11.71
2022-11-07T19:50:01.871Z,11.61
2022-11-07T19:52:28.355Z,11.79
2022-11-07T19:54:54.660Z,11.79
2022-11-07T19:57:21.141Z,11.61
2022-11-07T19:59:47.419Z,11.68
2022-11-07T20:04:59.983Z,11.75
2022-11-07T20:07:26.303Z,11.58
2022-11-07T20:09:52.684Z,11.71
2022-11-07T20:12:18.959Z,11.59
2022-11-07T20:14:45.206Z,11.43
2022-11-07T20:17:11.463Z,11.66
2022-11-07T20:19:37.955Z,11.58
2022-11-07T20:22:04.217Z,11.68
2022-11-07T20:24:30.487Z,11.57
2022-11-07T20:26:56.901Z,11.34
2022-11-07T20:29:23.160Z,11.48
2022-11-07T20:31:49.401Z,11.30
2022-11-07T20:34:15.672Z,11.35
2022-11-07T20:36:41.958Z,11.38
2022-11-07T20:39:08.217Z,11.40
2022-11-07T20:41:34.552Z,11.13
2022-11-07T20:44:04.139Z,10.71
2022-11-07T20:46:30.638Z,11.13
2022-11-07T20:48:56.895Z,11.07
2022-11-07T20:51:23.240Z,11.27
2022-11-07T20:53:50.543Z,11.12
2022-11-07T20:56:17.761Z,11.18
2022-11-07T20:58:44.437Z,10.94
2022-11-07T21:01:10.841Z,11.10
2022-11-07T21:03:37.142Z,11.19
2022-11-07T21:06:03.535Z,11.23
2022-11-07T21:08:32.006Z,11.33
2022-11-07T21:11:02.351Z,11.11
2022-11-07T21:13:29.116Z,11.16
2022-11-07T21:15:55.377Z,11.00
2022-11-07T21:18:21.627Z,11.12
2022-11-07T21:20:48.170Z,11.11
2022-11-07T21:23:15.810Z,11.12
2022-11-07T21:25:42.932Z,11.05
2022-11-07T21:28:09.232Z,10.98
2022-11-07T21:30:35.729Z,10.77
2022-11-07T21:33:01.987Z,11.14
2022-11-07T21:35:33.344Z,11.29
2022-11-07T21:37:59.898Z,11.37
2022-11-07T21:40:26.422Z,11.40
2022-11-07T21:42:54.873Z,11.30
2022-11-07T21:45:21.146Z,11.43
2022-11-07T21:47:47.416Z,11.45
2022-11-07T21:50:38.470Z,11.44
2022-11-07T21:53:03.797Z,11.54
2022-11-07T21:55:30.045Z,11.61
2022-11-07T21:57:56.316Z,11.57
2022-11-07T22:00:22.582Z,11.50
2022-11-07T22:02:48.833Z,11.52
2022-11-07T22:05:15.323Z,11.53
2022-11-07T22:07:41.581Z,11.59
2022-11-07T22:10:07.833Z,11.19
2022-11-07T22:12:34.097Z,11.43
2022-11-07T22:15:00.394Z,11.52
2022-11-07T22:17:27.002Z,11.45
2022-11-07T22:19:53.317Z,11.40
2022-11-07T22:22:20.936Z,11.47
2022-11-07T22:24:47.200Z,11.47
2022-11-07T22:27:13.461Z,11.49
2022-11-07T22:29:39.715Z,11.29
2022-11-07T22:32:06.055Z,11.35
2022-11-07T22:34:32.362Z,11.24
2022-11-07T22:36:58.727Z,11.10
2022-11-07T22:39:25.002Z,11.04
2022-11-07T22:41:51.258Z,11.07
2022-11-07T22:44:17.584Z,10.90
2022-11-07T22:46:43.855Z,10.96
2022-11-07T22:49:10.115Z,10.88
2022-11-07T22:51:36.378Z,10.89
2022-11-07T22:54:02.665Z,10.82
2022-11-07T22:56:28.936Z,10.57
2022-11-07T22:58:55.200Z,10.77
2022-11-07T23:01:21.496Z,10.77
2022-11-07T23:03:48.353Z,10.78
2022-11-07T23:06:14.635Z,10.64
2022-11-07T23:08:40.894Z,10.58
2022-11-07T23:11:44.047Z,10.63
2022-11-07T23:13:53.473Z,10.85
2022-11-07T23:16:19.734Z,10.65
2022-11-07T23:18:45.977Z,10.76
2022-11-07T23:21:14.931Z,10.93
2022-11-07T23:23:41.182Z,10.87
2022-11-07T23:26:10.733Z,10.87
2022-11-07T23:28:37.000Z,10.87
2022-11-07T23:31:03.298Z,10.80
2022-11-07T23:33:29.597Z,11.01
2022-11-07T23:35:55.852Z,11.03
2022-11-07T23:38:22.115Z,11.04
2022-11-07T23:40:48.364Z,11.05
2022-11-07T23:43:14.631Z,11.08
2022-11-07T23:45:59.771Z,11.13
2022-11-07T23:48:44.805Z,11.02
2022-11-07T23:51:11.075Z,11.08
2022-11-07T23:53:55.791Z,11.11
2022-11-07T23:56:22.062Z,11.12
2022-11-07T23:59:07.078Z,11.11
